sensor_id;sensor_type;location;lat;lon;timestamp;P1;durP1;ratioP1;P2;durP2;ratioP2
51148;SDS011;37210;50.058;8.688;2022-10-03T00:01:24;5.63;;;5.13;;
51148;SDS011;37210;50.058;8.688;2022-10-03T00:04:21;6.43;;;5.32;;
51148;SDS011;37210;50.058;8.688;2022-10-03T00:07:16;5.57;;;5.07;;
51148;SDS011;37210;50.058;8.688;2022-10-03T00:10:16;8.13;;;5.68;;
51148;SDS011;37210;50.058;8.688;2022-10-03T00:13:03;6.05;;;5.40;;
51148;SDS011;37210;50.058;8.688;2022-10-03T00:15:41;6.70;;;5.35;;
51148;SDS011;37210;50.058;8.688;2022-10-03T00:18:21;6.03;;;5.43;;
51148;SDS011;37210;50.058;8.688;2022-10-03T00:23:48;6.32;;;5.72;;
51148;SDS011;37210;50.058;8.688;2022-10-03T00:26:34;6.32;;;5.55;;
51148;SDS011;37210;50.058;8.688;2022-10-03T00:29:22;6.07;;;5.40;;
51148;SDS011;37210;50.058;8.688;2022-10-03T00:32:05;7.38;;;5.57;;
51148;SDS011;37210;50.058;8.688;2022-10-03T00:34:59;6.40;;;5.68;;
51148;SDS011;37210;50.058;8.688;2022-10-03T00:37:37;8.15;;;5.22;;
51148;SDS011;37210;50.058;8.688;2022-10-03T00:40:29;8.07;;;6.55;;
51148;SDS011;37210;50.058;8.688;2022-10-03T00:50:14;6.05;;;5.45;;
51148;SDS011;37210;50.058;8.688;2022-10-03T00:53:19;7.03;;;6.00;;
51148;SDS011;37210;50.058;8.688;2022-10-03T01:02:40;7.05;;;5.72;;
51148;SDS011;37210;50.058;8.688;2022-10-03T01:05:37;9.05;;;6.45;;
51148;SDS011;37210;50.058;8.688;2022-10-03T01:08:26;5.75;;;5.25;;
51148;SDS011;37210;50.058;8.688;2022-10-03T01:11:13;8.02;;;5.38;;
51148;SDS011;37210;50.058;8.688;2022-10-03T01:14:01;6.13;;;5.55;;
51148;SDS011;37210;50.058;8.688;2022-10-03T01:16:49;6.25;;;5.65;;
51148;SDS011;37210;50.058;8.688;2022-10-03T01:22:23;7.45;;;5.18;;
51148;SDS011;37210;50.058;8.688;2022-10-03T01:25:32;7.63;;;6.07;;
51148;SDS011;37210;50.058;8.688;2022-10-03T01:28:19;7.72;;;5.88;;
51148;SDS011;37210;50.058;8.688;2022-10-03T01:31:24;7.43;;;6.40;;
51148;SDS011;37210;50.058;8.688;2022-10-03T01:34:05;7.30;;;6.10;;
51148;SDS011;37210;50.058;8.688;2022-10-03T01:36:45;6.22;;;5.63;;
51148;SDS011;37210;50.058;8.688;2022-10-03T01:39:31;6.13;;;5.35;;
51148;SDS011;37210;50.058;8.688;2022-10-03T01:42:09;7.07;;;6.38;;
51148;SDS011;37210;50.058;8.688;2022-10-03T01:44:54;6.28;;;5.60;;
51148;SDS011;37210;50.058;8.688;2022-10-03T01:47:39;6.88;;;5.90;;
51148;SDS011;37210;50.058;8.688;2022-10-03T01:50:20;7.05;;;5.63;;
51148;SDS011;37210;50.058;8.688;2022-10-03T01:52:57;5.95;;;5.45;;
51148;SDS011;37210;50.058;8.688;2022-10-03T01:55:36;6.97;;;5.47;;
51148;SDS011;37210;50.058;8.688;2022-10-03T01:58:24;7.28;;;6.03;;
51148;SDS011;37210;50.058;8.688;2022-10-03T02:01:03;7.75;;;6.53;;
51148;SDS011;37210;50.058;8.688;2022-10-03T02:03:44;6.75;;;6.15;;
51148;SDS011;37210;50.058;8.688;2022-10-03T02:06:31;6.13;;;5.53;;
51148;SDS011;37210;50.058;8.688;2022-10-03T02:09:17;7.60;;;6.00;;
51148;SDS011;37210;50.058;8.688;2022-10-03T02:12:12;6.70;;;6.10;;
51148;SDS011;37210;50.058;8.688;2022-10-03T02:14:52;9.02;;;6.30;;
51148;SDS011;37210;50.058;8.688;2022-10-03T02:17:29;7.13;;;6.28;;
51148;SDS011;37210;50.058;8.688;2022-10-03T02:20:21;6.85;;;5.85;;
51148;SDS011;37210;50.058;8.688;2022-10-03T02:23:00;7.63;;;6.18;;
51148;SDS011;37210;50.058;8.688;2022-10-03T02:25:48;7.50;;;6.43;;
51148;SDS011;37210;50.058;8.688;2022-10-03T02:28:44;5.55;;;5.15;;
51148;SDS011;37210;50.058;8.688;2022-10-03T02:31:35;6.80;;;6.20;;
51148;SDS011;37210;50.058;8.688;2022-10-03T02:34:43;7.28;;;5.32;;
51148;SDS011;37210;50.058;8.688;2022-10-03T02:41:10;6.68;;;5.75;;
51148;SDS011;37210;50.058;8.688;2022-10-03T02:44:13;8.05;;;5.75;;
51148;SDS011;37210;50.058;8.688;2022-10-03T02:47:15;6.68;;;5.93;;
51148;SDS011;37210;50.058;8.688;2022-10-03T02:54:09;7.90;;;6.07;;
51148;SDS011;37210;50.058;8.688;2022-10-03T03:00:54;8.13;;;5.82;;
51148;SDS011;37210;50.058;8.688;2022-10-03T03:04:18;8.13;;;5.72;;
51148;SDS011;37210;50.058;8.688;2022-10-03T03:07:32;6.50;;;5.70;;
51148;SDS011;37210;50.058;8.688;2022-10-03T03:10:32;6.47;;;5.88;;
51148;SDS011;37210;50.058;8.688;2022-10-03T03:16:59;5.80;;;5.13;;
51148;SDS011;37210;50.058;8.688;2022-10-03T03:19:45;6.20;;;5.60;;
51148;SDS011;37210;50.058;8.688;2022-10-03T03:22:55;7.18;;;5.93;;
51148;SDS011;37210;50.058;8.688;2022-10-03T03:25:44;7.90;;;6.07;;
51148;SDS011;37210;50.058;8.688;2022-10-03T03:28:44;6.68;;;6.13;;
51148;SDS011;37210;50.058;8.688;2022-10-03T03:31:24;6.13;;;5.53;;
51148;SDS011;37210;50.058;8.688;2022-10-03T03:34:05;8.25;;;5.70;;
51148;SDS011;37210;50.058;8.688;2022-10-03T03:36:46;6.00;;;5.43;;
51148;SDS011;37210;50.058;8.688;2022-10-03T03:42:36;6.75;;;6.05;;
51148;SDS011;37210;50.058;8.688;2022-10-03T03:45:41;6.25;;;5.60;;
51148;SDS011;37210;50.058;8.688;2022-10-03T03:48:30;6.85;;;5.90;;
51148;SDS011;37210;50.058;8.688;2022-10-03T03:51:37;7.13;;;5.97;;
51148;SDS011;37210;50.058;8.688;2022-10-03T03:54:32;6.05;;;5.55;;
51148;SDS011;37210;50.058;8.688;2022-10-03T03:57:39;6.25;;;5.65;;
51148;SDS011;37210;50.058;8.688;2022-10-03T04:00:38;6.45;;;5.80;;
51148;SDS011;37210;50.058;8.688;2022-10-03T04:03:29;7.50;;;5.88;;
51148;SDS011;37210;50.058;8.688;2022-10-03T04:09:18;6.32;;;5.72;;
51148;SDS011;37210;50.058;8.688;2022-10-03T04:12:21;5.82;;;5.32;;
51148;SDS011;37210;50.058;8.688;2022-10-03T04:15:21;8.43;;;5.60;;
51148;SDS011;37210;50.058;8.688;2022-10-03T04:18:19;5.70;;;5.20;;
51148;SDS011;37210;50.058;8.688;2022-10-03T04:21:24;6.53;;;5.75;;
51148;SDS011;37210;50.058;8.688;2022-10-03T04:24:43;6.15;;;5.55;;
51148;SDS011;37210;50.058;8.688;2022-10-03T04:30:39;6.45;;;5.57;;
51148;SDS011;37210;50.058;8.688;2022-10-03T04:33:31;6.22;;;5.63;;
51148;SDS011;37210;50.058;8.688;2022-10-03T04:36:37;5.72;;;5.22;;
51148;SDS011;37210;50.058;8.688;2022-10-03T04:39:35;8.35;;;5.25;;
51148;SDS011;37210;50.058;8.688;2022-10-03T04:42:25;7.13;;;6.22;;
51148;SDS011;37210;50.058;8.688;2022-10-03T04:45:16;7.45;;;5.80;;
51148;SDS011;37210;50.058;8.688;2022-10-03T04:48:04;7.32;;;5.82;;
51148;SDS011;37210;50.058;8.688;2022-10-03T04:50:44;7.22;;;5.70;;
51148;SDS011;37210;50.058;8.688;2022-10-03T04:53:33;6.40;;;5.82;;
51148;SDS011;37210;50.058;8.688;2022-10-03T04:59:21;6.57;;;5.95;;
51148;SDS011;37210;50.058;8.688;2022-10-03T05:02:05;6.30;;;5.70;;
51148;SDS011;37210;50.058;8.688;2022-10-03T05:04:53;6.20;;;5.60;;
51148;SDS011;37210;50.058;8.688;2022-10-03T05:07:39;6.40;;;5.68;;
51148;SDS011;37210;50.058;8.688;2022-10-03T05:10:33;6.45;;;5.85;;
51148;SDS011;37210;50.058;8.688;2022-10-03T05:15:58;6.47;;;5.38;;
51148;SDS011;37210;50.058;8.688;2022-10-03T05:18:46;6.30;;;5.63;;
51148;SDS011;37210;50.058;8.688;2022-10-03T05:21:29;6.13;;;5.53;;
51148;SDS011;37210;50.058;8.688;2022-10-03T05:24:12;6.30;;;5.70;;
51148;SDS011;37210;50.058;8.688;2022-10-03T05:26:55;6.43;;;5.50;;
51148;SDS011;37210;50.058;8.688;2022-10-03T05:29:38;8.00;;;5.97;;
51148;SDS011;37210;50.058;8.688;2022-10-03T05:32:22;9.35;;;5.95;;
51148;SDS011;37210;50.058;8.688;2022-10-03T05:35:11;7.25;;;6.03;;
51148;SDS011;37210;50.058;8.688;2022-10-03T05:41:40;6.60;;;5.88;;
51148;SDS011;37210;50.058;8.688;2022-10-03T05:44:18;6.75;;;5.70;;
51148;SDS011;37210;50.058;8.688;2022-10-03T05:47:14;6.18;;;5.57;;
51148;SDS011;37210;50.058;8.688;2022-10-03T05:53:52;8.13;;;6.03;;
51148;SDS011;37210;50.058;8.688;2022-10-03T05:57:07;6.82;;;5.40;;
51148;SDS011;37210;50.058;8.688;2022-10-03T06:00:14;6.55;;;6.05;;
51148;SDS011;37210;50.058;8.688;2022-10-03T06:02:52;8.32;;;5.90;;
51148;SDS011;37210;50.058;8.688;2022-10-03T06:06:09;8.18;;;5.82;;
51148;SDS011;37210;50.058;8.688;2022-10-03T06:08:55;7.75;;;5.97;;
51148;SDS011;37210;50.058;8.688;2022-10-03T06:12:03;8.02;;;6.22;;
51148;SDS011;37210;50.058;8.688;2022-10-03T06:14:47;6.82;;;6.18;;
51148;SDS011;37210;50.058;8.688;2022-10-03T06:17:49;6.38;;;5.72;;
51148;SDS011;37210;50.058;8.688;2022-10-03T06:27:17;8.93;;;6.85;;
51148;SDS011;37210;50.058;8.688;2022-10-03T06:30:18;9.15;;;6.68;;
51148;SDS011;37210;50.058;8.688;2022-10-03T06:33:05;7.55;;;6.70;;
51148;SDS011;37210;50.058;8.688;2022-10-03T06:36:30;8.25;;;6.50;;
51148;SDS011;37210;50.058;8.688;2022-10-03T06:42:53;8.05;;;7.25;;
51148;SDS011;37210;50.058;8.688;2022-10-03T06:46:02;10.52;;;7.70;;
51148;SDS011;37210;50.058;8.688;2022-10-03T06:52:13;8.70;;;7.68;;
51148;SDS011;37210;50.058;8.688;2022-10-03T06:58:38;9.52;;;7.72;;
51148;SDS011;37210;50.058;8.688;2022-10-03T07:05:04;11.18;;;9.02;;
51148;SDS011;37210;50.058;8.688;2022-10-03T07:11:45;10.48;;;9.15;;
51148;SDS011;37210;50.058;8.688;2022-10-03T07:28:55;14.55;;;9.90;;
51148;SDS011;37210;50.058;8.688;2022-10-03T07:31:54;11.50;;;10.15;;
51148;SDS011;37210;50.058;8.688;2022-10-03T07:35:03;13.68;;;9.88;;
51148;SDS011;37210;50.058;8.688;2022-10-03T07:38:25;13.13;;;10.35;;
51148;SDS011;37210;50.058;8.688;2022-10-03T07:41:27;11.73;;;9.98;;
51148;SDS011;37210;50.058;8.688;2022-10-03T07:44:54;14.70;;;9.55;;
51148;SDS011;37210;50.058;8.688;2022-10-03T07:48:08;11.75;;;9.07;;
51148;SDS011;37210;50.058;8.688;2022-10-03T07:51:21;11.05;;;9.40;;
51148;SDS011;37210;50.058;8.688;2022-10-03T07:54:06;12.85;;;9.40;;
51148;SDS011;37210;50.058;8.688;2022-10-03T07:57:28;15.85;;;10.35;;
51148;SDS011;37210;50.058;8.688;2022-10-03T08:00:20;14.55;;;10.45;;
51148;SDS011;37210;50.058;8.688;2022-10-03T08:06:27;13.93;;;10.15;;
51148;SDS011;37210;50.058;8.688;2022-10-03T08:09:18;14.93;;;10.40;;
51148;SDS011;37210;50.058;8.688;2022-10-03T08:15:33;14.38;;;9.82;;
51148;SDS011;37210;50.058;8.688;2022-10-03T08:21:29;11.70;;;9.10;;
51148;SDS011;37210;50.058;8.688;2022-10-03T08:27:50;11.45;;;8.98;;
51148;SDS011;37210;50.058;8.688;2022-10-03T08:30:50;12.45;;;8.15;;
51148;SDS011;37210;50.058;8.688;2022-10-03T08:33:46;11.07;;;8.13;;
51148;SDS011;37210;50.058;8.688;2022-10-03T08:36:46;15.07;;;12.48;;
51148;SDS011;37210;50.058;8.688;2022-10-03T08:39:54;20.73;;;15.95;;
51148;SDS011;37210;50.058;8.688;2022-10-03T08:43:06;14.95;;;11.55;;
51148;SDS011;37210;50.058;8.688;2022-10-03T08:46:20;13.65;;;9.82;;
51148;SDS011;37210;50.058;8.688;2022-10-03T08:52:10;15.18;;;11.30;;
51148;SDS011;37210;50.058;8.688;2022-10-03T08:54:56;13.23;;;9.60;;
51148;SDS011;37210;50.058;8.688;2022-10-03T08:58:11;9.05;;;6.35;;
51148;SDS011;37210;50.058;8.688;2022-10-03T09:01:10;19.92;;;17.65;;
51148;SDS011;37210;50.058;8.688;2022-10-03T09:07:26;11.38;;;9.32;;
51148;SDS011;37210;50.058;8.688;2022-10-03T09:10:43;10.23;;;7.40;;
51148;SDS011;37210;50.058;8.688;2022-10-03T09:14:08;7.50;;;5.32;;
51148;SDS011;37210;50.058;8.688;2022-10-03T09:27:48;6.38;;;5.47;;
51148;SDS011;37210;50.058;8.688;2022-10-03T09:30:57;7.35;;;5.90;;
51148;SDS011;37210;50.058;8.688;2022-10-03T09:40:33;7.40;;;4.43;;
51148;SDS011;37210;50.058;8.688;2022-10-03T09:47:04;9.38;;;5.57;;
51148;SDS011;37210;50.058;8.688;2022-10-03T09:53:36;7.03;;;4.07;;
51148;SDS011;37210;50.058;8.688;2022-10-03T09:56:56;6.00;;;4.40;;
51148;SDS011;37210;50.058;8.688;2022-10-03T09:59:49;5.03;;;3.42;;
51148;SDS011;37210;50.058;8.688;2022-10-03T10:06:07;8.88;;;7.95;;
51148;SDS011;37210;50.058;8.688;2022-10-03T10:12:22;4.57;;;3.22;;
51148;SDS011;37210;50.058;8.688;2022-10-03T10:15:25;5.82;;;3.20;;
51148;SDS011;37210;50.058;8.688;2022-10-03T10:19:02;5.70;;;3.45;;
51148;SDS011;37210;50.058;8.688;2022-10-03T10:22:04;3.17;;;2.50;;
51148;SDS011;37210;50.058;8.688;2022-10-03T10:28:25;2.75;;;2.30;;
51148;SDS011;37210;50.058;8.688;2022-10-03T10:38:38;3.67;;;2.20;;
51148;SDS011;37210;50.058;8.688;2022-10-03T10:41:54;4.40;;;2.38;;
51148;SDS011;37210;50.058;8.688;2022-10-03T10:48:24;2.78;;;1.80;;
51148;SDS011;37210;50.058;8.688;2022-10-03T10:58:43;3.22;;;2.08;;
51148;SDS011;37210;50.058;8.688;2022-10-03T11:02:26;3.05;;;1.77;;
51148;SDS011;37210;50.058;8.688;2022-10-03T11:05:54;3.95;;;1.58;;
51148;SDS011;37210;50.058;8.688;2022-10-03T11:15:56;2.65;;;1.10;;
51148;SDS011;37210;50.058;8.688;2022-10-03T11:19:28;3.63;;;1.70;;
51148;SDS011;37210;50.058;8.688;2022-10-03T11:22:48;3.35;;;1.50;;
51148;SDS011;37210;50.058;8.688;2022-10-03T11:25:52;3.90;;;1.75;;
51148;SDS011;37210;50.058;8.688;2022-10-03T11:29:08;3.20;;;1.73;;
51148;SDS011;37210;50.058;8.688;2022-10-03T11:32:50;1.45;;;1.23;;
51148;SDS011;37210;50.058;8.688;2022-10-03T11:39:31;2.13;;;1.52;;
51148;SDS011;37210;50.058;8.688;2022-10-03T11:42:14;3.35;;;1.70;;
51148;SDS011;37210;50.058;8.688;2022-10-03T11:44:54;5.90;;;2.22;;
51148;SDS011;37210;50.058;8.688;2022-10-03T11:47:44;2.63;;;1.63;;
51148;SDS011;37210;50.058;8.688;2022-10-03T11:56:08;5.47;;;1.90;;
51148;SDS011;37210;50.058;8.688;2022-10-03T11:59:15;3.08;;;1.60;;
51148;SDS011;37210;50.058;8.688;2022-10-03T12:02:06;4.60;;;1.80;;
51148;SDS011;37210;50.058;8.688;2022-10-03T12:04:49;2.75;;;2.25;;
51148;SDS011;37210;50.058;8.688;2022-10-03T12:07:38;3.20;;;1.58;;
51148;SDS011;37210;50.058;8.688;2022-10-03T12:10:34;4.20;;;2.20;;
51148;SDS011;37210;50.058;8.688;2022-10-03T12:13:12;5.20;;;2.38;;
51148;SDS011;37210;50.058;8.688;2022-10-03T12:15:45;3.28;;;2.00;;
51148;SDS011;37210;50.058;8.688;2022-10-03T12:18:18;3.58;;;1.88;;
51148;SDS011;37210;50.058;8.688;2022-10-03T12:21:08;1.98;;;1.42;;
51148;SDS011;37210;50.058;8.688;2022-10-03T12:23:49;2.88;;;1.80;;
51148;SDS011;37210;50.058;8.688;2022-10-03T12:26:37;6.33;;;1.87;;
51148;SDS011;37210;50.058;8.688;2022-10-03T12:29:18;2.55;;;2.13;;
51148;SDS011;37210;50.058;8.688;2022-10-03T12:31:54;3.72;;;2.28;;
51148;SDS011;37210;50.058;8.688;2022-10-03T12:34:48;2.17;;;1.42;;
51148;SDS011;37210;50.058;8.688;2022-10-03T12:37:33;2.97;;;1.65;;
51148;SDS011;37210;50.058;8.688;2022-10-03T12:40:15;4.50;;;1.92;;
51148;SDS011;37210;50.058;8.688;2022-10-03T12:42:55;4.70;;;2.17;;
51148;SDS011;37210;50.058;8.688;2022-10-03T12:45:43;2.45;;;2.03;;
51148;SDS011;37210;50.058;8.688;2022-10-03T12:48:25;3.63;;;1.80;;
51148;SDS011;37210;50.058;8.688;2022-10-03T12:51:11;3.53;;;2.00;;
51148;SDS011;37210;50.058;8.688;2022-10-03T12:53:56;3.70;;;1.90;;
51148;SDS011;37210;50.058;8.688;2022-10-03T12:56:41;2.75;;;2.38;;
51148;SDS011;37210;50.058;8.688;2022-10-03T12:59:17;2.95;;;1.85;;
51148;SDS011;37210;50.058;8.688;2022-10-03T13:02:04;3.70;;;2.20;;
51148;SDS011;37210;50.058;8.688;2022-10-03T13:04:54;4.13;;;2.30;;
51148;SDS011;37210;50.058;8.688;2022-10-03T13:07:51;3.60;;;2.00;;
51148;SDS011;37210;50.058;8.688;2022-10-03T13:10:31;2.95;;;2.13;;
51148;SDS011;37210;50.058;8.688;2022-10-03T13:16:02;2.40;;;2.20;;
51148;SDS011;37210;50.058;8.688;2022-10-03T13:18:52;3.47;;;2.10;;
51148;SDS011;37210;50.058;8.688;2022-10-03T13:21:35;4.72;;;2.40;;
51148;SDS011;37210;50.058;8.688;2022-10-03T13:24:30;2.80;;;2.22;;
51148;SDS011;37210;50.058;8.688;2022-10-03T13:27:16;2.72;;;2.25;;
51148;SDS011;37210;50.058;8.688;2022-10-03T13:30:02;3.45;;;2.50;;
51148;SDS011;37210;50.058;8.688;2022-10-03T13:32:39;4.47;;;2.40;;
51148;SDS011;37210;50.058;8.688;2022-10-03T13:38:34;3.97;;;2.35;;
51148;SDS011;37210;50.058;8.688;2022-10-03T13:44:02;2.58;;;2.28;;
51148;SDS011;37210;50.058;8.688;2022-10-03T13:46:43;3.08;;;2.30;;
51148;SDS011;37210;50.058;8.688;2022-10-03T13:49:23;3.70;;;2.38;;
51148;SDS011;37210;50.058;8.688;2022-10-03T13:51:58;3.47;;;2.70;;
51148;SDS011;37210;50.058;8.688;2022-10-03T13:54:41;5.55;;;2.60;;
51148;SDS011;37210;50.058;8.688;2022-10-03T13:57:36;2.70;;;2.50;;
51148;SDS011;37210;50.058;8.688;2022-10-03T14:00:13;5.43;;;2.63;;
51148;SDS011;37210;50.058;8.688;2022-10-03T14:05:49;2.90;;;2.53;;
51148;SDS011;37210;50.058;8.688;2022-10-03T14:08:33;5.95;;;2.75;;
51148;SDS011;37210;50.058;8.688;2022-10-03T14:11:41;3.20;;;2.75;;
51148;SDS011;37210;50.058;8.688;2022-10-03T14:14:28;5.93;;;3.03;;
51148;SDS011;37210;50.058;8.688;2022-10-03T14:17:22;4.13;;;2.60;;
51148;SDS011;37210;50.058;8.688;2022-10-03T14:20:09;3.75;;;2.38;;
51148;SDS011;37210;50.058;8.688;2022-10-03T14:22:58;3.55;;;2.50;;
51148;SDS011;37210;50.058;8.688;2022-10-03T14:25:43;4.05;;;2.80;;
51148;SDS011;37210;50.058;8.688;2022-10-03T14:28:21;4.05;;;2.80;;
51148;SDS011;37210;50.058;8.688;2022-10-03T14:30:58;4.45;;;2.75;;
51148;SDS011;37210;50.058;8.688;2022-10-03T14:33:42;3.58;;;2.53;;
51148;SDS011;37210;50.058;8.688;2022-10-03T14:36:23;3.53;;;2.65;;
51148;SDS011;37210;50.058;8.688;2022-10-03T14:39:20;3.10;;;2.80;;
51148;SDS011;37210;50.058;8.688;2022-10-03T14:42:08;3.75;;;2.90;;
51148;SDS011;37210;50.058;8.688;2022-10-03T14:45:06;3.80;;;2.88;;
51148;SDS011;37210;50.058;8.688;2022-10-03T14:47:39;4.18;;;2.67;;
51148;SDS011;37210;50.058;8.688;2022-10-03T14:50:15;3.38;;;2.90;;
51148;SDS011;37210;50.058;8.688;2022-10-03T14:52:49;3.88;;;3.20;;
51148;SDS011;37210;50.058;8.688;2022-10-03T14:55:29;4.18;;;2.72;;
51148;SDS011;37210;50.058;8.688;2022-10-03T14:58:00;3.30;;;2.90;;
51148;SDS011;37210;50.058;8.688;2022-10-03T15:00:36;2.85;;;2.55;;
51148;SDS011;37210;50.058;8.688;2022-10-03T15:03:12;3.83;;;3.40;;
51148;SDS011;37210;50.058;8.688;2022-10-03T15:05:56;6.15;;;3.28;;
51148;SDS011;37210;50.058;8.688;2022-10-03T15:08:33;3.35;;;2.72;;
51148;SDS011;37210;50.058;8.688;2022-10-03T15:11:07;4.93;;;3.42;;
51148;SDS011;37210;50.058;8.688;2022-10-03T15:13:39;4.32;;;3.75;;
51148;SDS011;37210;50.058;8.688;2022-10-03T15:16:13;4.75;;;3.42;;
51148;SDS011;37210;50.058;8.688;2022-10-03T15:18:49;3.85;;;3.15;;
51148;SDS011;37210;50.058;8.688;2022-10-03T15:21:22;5.38;;;3.33;;
51148;SDS011;37210;50.058;8.688;2022-10-03T15:23:56;5.60;;;4.07;;
51148;SDS011;37210;50.058;8.688;2022-10-03T15:26:31;5.03;;;3.80;;
51148;SDS011;37210;50.058;8.688;2022-10-03T15:29:03;6.10;;;4.20;;
51148;SDS011;37210;50.058;8.688;2022-10-03T15:31:33;5.93;;;4.20;;
51148;SDS011;37210;50.058;8.688;2022-10-03T15:34:04;5.65;;;3.60;;
51148;SDS011;37210;50.058;8.688;2022-10-03T15:36:42;4.45;;;4.03;;
51148;SDS011;37210;50.058;8.688;2022-10-03T15:39:17;8.82;;;4.50;;
51148;SDS011;37210;50.058;8.688;2022-10-03T15:41:52;5.03;;;3.67;;
51148;SDS011;37210;50.058;8.688;2022-10-03T15:44:23;5.32;;;3.63;;
51148;SDS011;37210;50.058;8.688;2022-10-03T15:47:04;6.80;;;4.28;;
51148;SDS011;37210;50.058;8.688;2022-10-03T15:49:38;5.15;;;4.15;;
51148;SDS011;37210;50.058;8.688;2022-10-03T15:52:17;4.30;;;3.90;;
51148;SDS011;37210;50.058;8.688;2022-10-03T15:54:50;6.53;;;3.40;;
51148;SDS011;37210;50.058;8.688;2022-10-03T15:57:23;6.10;;;3.60;;
51148;SDS011;37210;50.058;8.688;2022-10-03T15:59:55;4.53;;;3.00;;
51148;SDS011;37210;50.058;8.688;2022-10-03T16:02:28;5.40;;;3.55;;
51148;SDS011;37210;50.058;8.688;2022-10-03T16:05:02;6.10;;;4.23;;
51148;SDS011;37210;50.058;8.688;2022-10-03T16:07:45;9.38;;;6.55;;
51148;SDS011;37210;50.058;8.688;2022-10-03T16:10:22;7.25;;;4.80;;
51148;SDS011;37210;50.058;8.688;2022-10-03T16:12:56;5.95;;;4.72;;
51148;SDS011;37210;50.058;8.688;2022-10-03T16:15:37;8.15;;;4.53;;
51148;SDS011;37210;50.058;8.688;2022-10-03T16:21:24;6.72;;;4.57;;
51148;SDS011;37210;50.058;8.688;2022-10-03T16:24:06;6.55;;;4.80;;
51148;SDS011;37210;50.058;8.688;2022-10-03T16:26:49;4.35;;;3.40;;
51148;SDS011;37210;50.058;8.688;2022-10-03T16:29:21;4.13;;;3.50;;
51148;SDS011;37210;50.058;8.688;2022-10-03T16:31:54;5.15;;;3.53;;
51148;SDS011;37210;50.058;8.688;2022-10-03T16:34:30;5.88;;;3.28;;
51148;SDS011;37210;50.058;8.688;2022-10-03T16:37:00;6.95;;;3.40;;
51148;SDS011;37210;50.058;8.688;2022-10-03T16:39:32;5.55;;;4.10;;
51148;SDS011;37210;50.058;8.688;2022-10-03T16:42:08;6.72;;;4.35;;
51148;SDS011;37210;50.058;8.688;2022-10-03T16:47:16;5.28;;;3.78;;
51148;SDS011;37210;50.058;8.688;2022-10-03T16:50:01;4.43;;;4.03;;
51148;SDS011;37210;50.058;8.688;2022-10-03T16:52:49;6.35;;;3.97;;
51148;SDS011;37210;50.058;8.688;2022-10-03T16:55:24;4.03;;;3.40;;
51148;SDS011;37210;50.058;8.688;2022-10-03T16:58:00;5.22;;;3.72;;
51148;SDS011;37210;50.058;8.688;2022-10-03T17:00:43;5.97;;;3.88;;
51148;SDS011;37210;50.058;8.688;2022-10-03T17:03:20;5.97;;;4.30;;
51148;SDS011;37210;50.058;8.688;2022-10-03T17:05:51;9.05;;;4.80;;
51148;SDS011;37210;50.058;8.688;2022-10-03T17:08:26;6.60;;;4.47;;
51148;SDS011;37210;50.058;8.688;2022-10-03T17:11:02;8.60;;;4.80;;
51148;SDS011;37210;50.058;8.688;2022-10-03T17:13:38;7.35;;;5.65;;
51148;SDS011;37210;50.058;8.688;2022-10-03T17:16:12;6.00;;;5.00;;
51148;SDS011;37210;50.058;8.688;2022-10-03T17:18:58;9.75;;;5.20;;
51148;SDS011;37210;50.058;8.688;2022-10-03T17:21:41;9.95;;;5.43;;
51148;SDS011;37210;50.058;8.688;2022-10-03T17:24:20;8.52;;;4.53;;
51148;SDS011;37210;50.058;8.688;2022-10-03T17:27:01;7.70;;;4.50;;
51148;SDS011;37210;50.058;8.688;2022-10-03T17:29:41;6.57;;;4.43;;
51148;SDS011;37210;50.058;8.688;2022-10-03T17:32:20;6.07;;;5.03;;
51148;SDS011;37210;50.058;8.688;2022-10-03T17:34:56;7.10;;;4.53;;
51148;SDS011;37210;50.058;8.688;2022-10-03T17:43:46;6.70;;;5.00;;
51148;SDS011;37210;50.058;8.688;2022-10-03T17:46:33;6.15;;;4.80;;
51148;SDS011;37210;50.058;8.688;2022-10-03T17:49:16;6.45;;;4.90;;
51148;SDS011;37210;50.058;8.688;2022-10-03T17:51:53;6.15;;;5.47;;
51148;SDS011;37210;50.058;8.688;2022-10-03T17:54:23;6.80;;;5.15;;
51148;SDS011;37210;50.058;8.688;2022-10-03T17:56:57;5.28;;;4.72;;
51148;SDS011;37210;50.058;8.688;2022-10-03T17:59:41;5.93;;;4.90;;
51148;SDS011;37210;50.058;8.688;2022-10-03T18:02:18;6.45;;;4.60;;
51148;SDS011;37210;50.058;8.688;2022-10-03T18:04:52;6.00;;;5.40;;
51148;SDS011;37210;50.058;8.688;2022-10-03T18:07:30;7.10;;;5.25;;
51148;SDS011;37210;50.058;8.688;2022-10-03T18:10:04;6.87;;;5.50;;
51148;SDS011;37210;50.058;8.688;2022-10-03T18:12:45;7.22;;;5.75;;
51148;SDS011;37210;50.058;8.688;2022-10-03T18:18:30;8.80;;;7.60;;
51148;SDS011;37210;50.058;8.688;2022-10-03T18:21:32;7.88;;;7.03;;
51148;SDS011;37210;50.058;8.688;2022-10-03T18:24:50;14.27;;;7.43;;
51148;SDS011;37210;50.058;8.688;2022-10-03T18:27:41;8.20;;;6.97;;
51148;SDS011;37210;50.058;8.688;2022-10-03T18:30:41;8.73;;;7.25;;
51148;SDS011;37210;50.058;8.688;2022-10-03T18:38:31;7.22;;;6.53;;
51148;SDS011;37210;50.058;8.688;2022-10-03T18:41:03;8.82;;;6.82;;
51148;SDS011;37210;50.058;8.688;2022-10-03T18:43:43;8.23;;;7.07;;
51148;SDS011;37210;50.058;8.688;2022-10-03T18:46:25;9.13;;;6.72;;
51148;SDS011;37210;50.058;8.688;2022-10-03T18:49:01;7.65;;;6.88;;
51148;SDS011;37210;50.058;8.688;2022-10-03T18:51:43;9.15;;;8.07;;
51148;SDS011;37210;50.058;8.688;2022-10-03T18:54:22;15.00;;;11.63;;
51148;SDS011;37210;50.058;8.688;2022-10-03T18:57:07;12.65;;;9.20;;
51148;SDS011;37210;50.058;8.688;2022-10-03T18:59:46;9.57;;;6.40;;
51148;SDS011;37210;50.058;8.688;2022-10-03T19:02:27;8.10;;;6.63;;
51148;SDS011;37210;50.058;8.688;2022-10-03T19:05:04;10.50;;;7.68;;
51148;SDS011;37210;50.058;8.688;2022-10-03T19:07:44;9.13;;;7.15;;
51148;SDS011;37210;50.058;8.688;2022-10-03T19:10:36;7.93;;;6.80;;
51148;SDS011;37210;50.058;8.688;2022-10-03T19:13:16;8.18;;;6.55;;
51148;SDS011;37210;50.058;8.688;2022-10-03T19:16:00;14.27;;;7.50;;
51148;SDS011;37210;50.058;8.688;2022-10-03T19:19:04;8.05;;;6.63;;
51148;SDS011;37210;50.058;8.688;2022-10-03T19:21:47;8.63;;;6.57;;
51148;SDS011;37210;50.058;8.688;2022-10-03T19:24:18;10.35;;;6.93;;
51148;SDS011;37210;50.058;8.688;2022-10-03T19:26:56;10.38;;;7.03;;
51148;SDS011;37210;50.058;8.688;2022-10-03T19:29:30;11.15;;;7.20;;
51148;SDS011;37210;50.058;8.688;2022-10-03T19:32:06;9.70;;;6.50;;
51148;SDS011;37210;50.058;8.688;2022-10-03T19:34:51;9.73;;;6.38;;
51148;SDS011;37210;50.058;8.688;2022-10-03T19:37:30;11.45;;;6.68;;
51148;SDS011;37210;50.058;8.688;2022-10-03T19:40:13;8.43;;;7.00;;
51148;SDS011;37210;50.058;8.688;2022-10-03T19:42:59;12.90;;;9.60;;
51148;SDS011;37210;50.058;8.688;2022-10-03T19:45:52;12.30;;;11.00;;
51148;SDS011;37210;50.058;8.688;2022-10-03T19:48:38;10.98;;;8.40;;
51148;SDS011;37210;50.058;8.688;2022-10-03T19:51:15;10.57;;;8.70;;
51148;SDS011;37210;50.058;8.688;2022-10-03T19:53:49;10.65;;;9.38;;
51148;SDS011;37210;50.058;8.688;2022-10-03T19:56:19;11.57;;;10.30;;
51148;SDS011;37210;50.058;8.688;2022-10-03T19:58:57;15.02;;;9.63;;
51148;SDS011;37210;50.058;8.688;2022-10-03T20:01:33;14.13;;;9.18;;
51148;SDS011;37210;50.058;8.688;2022-10-03T20:04:09;12.80;;;9.20;;
51148;SDS011;37210;50.058;8.688;2022-10-03T20:06:40;10.30;;;8.55;;
51148;SDS011;37210;50.058;8.688;2022-10-03T20:09:17;8.70;;;7.90;;
51148;SDS011;37210;50.058;8.688;2022-10-03T20:11:50;9.50;;;8.40;;
51148;SDS011;37210;50.058;8.688;2022-10-03T20:14:24;10.82;;;8.98;;
51148;SDS011;37210;50.058;8.688;2022-10-03T20:17:00;9.75;;;8.77;;
51148;SDS011;37210;50.058;8.688;2022-10-03T20:19:41;11.73;;;7.90;;
51148;SDS011;37210;50.058;8.688;2022-10-03T20:22:21;13.10;;;8.88;;
51148;SDS011;37210;50.058;8.688;2022-10-03T20:24:53;11.38;;;8.57;;
51148;SDS011;37210;50.058;8.688;2022-10-03T20:27:25;10.10;;;8.25;;